createdAt,value
2022-07-26T00:00:38.964Z,59.27
2022-07-26T00:03:44.458Z,59.40
2022-07-26T00:06:50.013Z,59.68
2022-07-26T00:09:55.362Z,59.83
2022-07-26T00:13:00.691Z,59.81
2022-07-26T00:16:06.835Z,59.84
2022-07-26T00:19:12.330Z,59.90
2022-07-26T00:22:35.983Z,60.02
2022-07-26T00:25:41.470Z,60.10
2022-07-26T00:28:47.025Z,60.12
2022-07-26T00:31:52.458Z,60.15
2022-07-26T00:34:57.949Z,60.27
2022-07-26T00:38:03.297Z,60.31
2022-07-26T00:41:10.298Z,60.61
2022-07-26T00:44:15.669Z,60.79
2022-07-26T00:47:21.069Z,61.00
2022-07-26T00:50:26.504Z,61.12
2022-07-26T00:53:31.861Z,61.16
2022-07-26T00:56:37.408Z,61.17
2022-07-26T00:59:43.105Z,61.22
2022-07-26T01:02:48.656Z,61.22
2022-07-26T01:05:54.462Z,61.26
2022-07-26T01:09:00.704Z,61.34
2022-07-26T01:12:06.734Z,61.33
2022-07-26T01:15:14.969Z,61.56
2022-07-26T01:18:20.518Z,61.79
2022-07-26T01:21:29.239Z,61.93
2022-07-26T01:24:34.629Z,61.96
2022-07-26T01:27:40.559Z,62.22
2022-07-26T01:30:46.018Z,62.30
2022-07-26T01:33:51.998Z,62.44
2022-07-26T01:36:57.435Z,62.58
2022-07-26T01:40:02.846Z,62.68
2022-07-26T01:43:08.234Z,62.82
2022-07-26T01:46:14.273Z,62.85
2022-07-26T01:49:18.595Z,62.96
2022-07-26T01:52:24.082Z,63.20
2022-07-26T01:55:29.480Z,63.18
2022-07-26T01:58:34.923Z,63.24
2022-07-26T02:01:40.518Z,63.32
2022-07-26T02:05:01.895Z,63.33
2022-07-26T02:08:07.633Z,63.48
2022-07-26T02:11:15.096Z,63.56
2022-07-26T02:14:26.058Z,63.71
2022-07-26T02:17:33.709Z,63.76
2022-07-26T02:20:39.141Z,63.75
2022-07-26T02:23:44.486Z,63.80
2022-07-26T02:26:50.087Z,63.81
2022-07-26T02:29:55.450Z,63.90
2022-07-26T02:33:00.778Z,64.08
2022-07-26T02:36:06.804Z,64.28
2022-07-26T02:39:12.578Z,64.35
2022-07-26T02:42:17.957Z,64.47
2022-07-26T02:45:23.945Z,64.61
2022-07-26T02:48:29.320Z,64.62
2022-07-26T02:51:34.777Z,64.74
2022-07-26T02:54:40.130Z,64.84
2022-07-26T02:57:46.761Z,64.81
2022-07-26T03:00:52.246Z,64.90
2022-07-26T03:03:57.581Z,65.01
2022-07-26T03:07:02.983Z,65.06
2022-07-26T03:10:11.293Z,65.10
2022-07-26T03:13:16.637Z,65.21
2022-07-26T03:16:24.868Z,65.28
2022-07-26T03:19:34.324Z,65.33
2022-07-26T03:22:39.679Z,65.52
2022-07-26T03:25:45.226Z,65.51
2022-07-26T03:28:50.558Z,65.68
2022-07-26T03:31:55.905Z,65.64
2022-07-26T03:35:01.421Z,65.72
2022-07-26T03:38:06.912Z,65.74
2022-07-26T03:41:13.414Z,65.82
2022-07-26T03:44:19.178Z,65.93
2022-07-26T03:47:24.506Z,66.01
2022-07-26T03:50:30.037Z,66.05
2022-07-26T03:53:35.965Z,66.10
2022-07-26T03:56:41.366Z,66.22
2022-07-26T03:59:46.740Z,66.24
2022-07-26T04:02:52.177Z,66.38
2022-07-26T04:05:57.674Z,66.52
2022-07-26T04:09:02.285Z,66.57
2022-07-26T04:12:11.350Z,66.77
2022-07-26T04:15:19.144Z,66.77
2022-07-26T04:18:25.554Z,66.99
2022-07-26T04:21:30.886Z,67.23
2022-07-26T04:24:36.345Z,67.07
2022-07-26T04:27:41.856Z,66.93
2022-07-26T04:30:47.244Z,66.94
2022-07-26T04:33:53.025Z,66.95
2022-07-26T04:36:58.362Z,67.11
2022-07-26T04:40:03.937Z,67.43
2022-07-26T04:43:10.033Z,67.67
2022-07-26T04:59:32.748Z,67.02
2022-07-26T05:02:39.112Z,66.92
2022-07-26T05:05:45.367Z,66.92
2022-07-26T05:08:51.539Z,66.83
2022-07-26T05:11:57.711Z,66.87
2022-07-26T05:15:04.565Z,66.83
2022-07-26T05:18:13.877Z,66.68
2022-07-26T05:21:20.487Z,66.86
2022-07-26T05:24:26.608Z,66.84
2022-07-26T05:27:32.890Z,66.93
2022-07-26T05:30:39.210Z,67.24
2022-07-26T05:33:45.442Z,67.19
2022-07-26T05:36:51.700Z,66.91
2022-07-26T05:39:57.971Z,66.39
2022-07-26T05:43:04.990Z,66.24
2022-07-26T05:46:11.343Z,66.23
2022-07-26T05:49:17.730Z,65.76
2022-07-26T05:52:25.072Z,65.66
2022-07-26T05:55:31.237Z,65.67
2022-07-26T05:58:37.675Z,65.76
2022-07-26T06:01:43.899Z,65.74
2022-07-26T06:04:50.167Z,65.86
2022-07-26T06:07:56.366Z,65.55
2022-07-26T06:11:02.519Z,65.65
2022-07-26T06:14:09.011Z,65.51
2022-07-26T06:17:15.369Z,65.58
2022-07-26T06:20:21.602Z,65.33
2022-07-26T06:23:31.987Z,65.12
2022-07-26T06:26:41.368Z,64.83
2022-07-26T06:29:49.266Z,64.44
2022-07-26T06:32:55.479Z,64.29
2022-07-26T06:36:01.733Z,64.01
2022-07-26T06:39:08.171Z,63.60
2022-07-26T06:42:14.187Z,63.47
2022-07-26T06:45:20.871Z,63.26
2022-07-26T06:48:26.907Z,62.82
2022-07-26T06:51:33.145Z,62.70
2022-07-26T06:54:39.467Z,62.57
2022-07-26T06:57:50.146Z,62.36
2022-07-26T07:00:56.976Z,62.14
2022-07-26T07:04:03.203Z,61.49
2022-07-26T07:07:09.371Z,60.97
2022-07-26T07:10:15.507Z,60.72
2022-07-26T07:13:22.271Z,60.19
2022-07-26T07:16:28.400Z,59.64
2022-07-26T07:19:36.205Z,58.85
2022-07-26T07:22:42.310Z,58.20
2022-07-26T07:25:48.843Z,57.47
2022-07-26T07:28:55.068Z,56.85
2022-07-26T07:32:03.600Z,56.27
2022-07-26T07:35:12.740Z,55.72
2022-07-26T07:38:19.860Z,55.22
2022-07-26T07:41:28.812Z,54.64
2022-07-26T07:44:35.014Z,54.20
2022-07-26T07:47:41.626Z,53.76
2022-07-26T07:50:48.148Z,53.11
2022-07-26T07:53:56.304Z,52.72
2022-07-26T07:57:03.654Z,52.24
2022-07-26T08:00:12.816Z,51.64
2022-07-26T08:03:22.406Z,51.33
2022-07-26T08:06:28.533Z,50.84
2022-07-26T08:09:34.534Z,50.85
2022-07-26T08:12:40.475Z,50.69
2022-07-26T08:15:46.695Z,50.43
2022-07-26T08:19:08.737Z,50.16
2022-07-26T08:22:15.266Z,49.78
2022-07-26T08:25:21.953Z,49.72
2022-07-26T08:31:55.135Z,49.50
2022-07-26T08:35:17.793Z,49.44
2022-07-26T08:38:25.880Z,49.55
2022-07-26T08:41:32.139Z,49.49
2022-07-26T08:44:38.409Z,49.55
2022-07-26T08:48:07.315Z,49.60
2022-07-26T08:51:12.971Z,49.44
2022-07-26T08:54:20.181Z,49.64
2022-07-26T08:57:26.383Z,49.55
2022-07-26T09:00:33.768Z,49.74
2022-07-26T09:03:40.288Z,49.85
2022-07-26T09:06:58.220Z,49.88
2022-07-26T09:10:07.747Z,49.88
2022-07-26T09:13:13.660Z,50.11
2022-07-26T09:16:19.760Z,50.28
2022-07-26T09:19:25.932Z,50.54
2022-07-26T09:22:32.290Z,50.79
2022-07-26T09:25:39.868Z,51.06
2022-07-26T09:28:46.078Z,51.14
2022-07-26T09:31:52.265Z,51.29
2022-07-26T09:35:44.091Z,51.36
2022-07-26T09:38:45.428Z,51.62
2022-07-26T09:42:17.565Z,51.72
2022-07-26T09:45:20.295Z,52.00
2022-07-26T09:48:46.154Z,52.27
2022-07-26T09:51:58.086Z,52.45
2022-07-26T09:55:08.382Z,52.57
2022-07-26T09:58:17.560Z,52.76
2022-07-26T10:01:23.862Z,52.86
2022-07-26T10:04:30.532Z,53.06
2022-07-26T10:07:37.924Z,53.33
2022-07-26T10:10:51.928Z,53.43
2022-07-26T10:13:58.970Z,53.49
2022-07-26T10:17:49.507Z,53.71
2022-07-26T10:20:55.804Z,54.11
2022-07-26T10:24:03.946Z,54.44
2022-07-26T10:27:09.964Z,54.75
2022-07-26T10:30:35.075Z,54.85
2022-07-26T10:33:46.997Z,55.31
2022-07-26T10:37:00.643Z,55.54
2022-07-26T10:40:30.308Z,55.77
2022-07-26T10:43:41.551Z,56.21
2022-07-26T10:47:16.774Z,56.20
2022-07-26T10:50:35.050Z,56.40
2022-07-26T10:53:41.631Z,56.50
2022-07-26T10:56:47.851Z,56.63
2022-07-26T10:59:56.847Z,56.82
2022-07-26T11:03:03.167Z,57.02
2022-07-26T11:06:18.726Z,57.15
2022-07-26T11:09:24.859Z,57.42
2022-07-26T11:12:30.947Z,57.53
2022-07-26T11:15:38.175Z,57.69
2022-07-26T11:18:44.439Z,57.85
2022-07-26T11:21:56.635Z,58.12
2022-07-26T11:25:03.283Z,58.27
2022-07-26T11:28:09.639Z,58.35
2022-07-26T11:31:16.698Z,58.57
2022-07-26T11:34:28.272Z,58.76
2022-07-26T11:37:34.478Z,58.90
2022-07-26T11:40:48.835Z,59.07
2022-07-26T11:44:01.893Z,59.20
2022-07-26T11:47:16.034Z,59.42
2022-07-26T11:50:23.275Z,59.59
2022-07-26T11:53:29.843Z,59.65
2022-07-26T11:56:35.921Z,59.85
2022-07-26T11:59:44.989Z,60.13
2022-07-26T12:02:55.765Z,60.31
2022-07-26T12:06:10.493Z,60.54
2022-07-26T12:09:31.327Z,60.65
2022-07-26T12:12:37.510Z,60.94
2022-07-26T12:15:51.771Z,61.11
2022-07-26T12:18:58.095Z,61.35
2022-07-26T12:22:13.499Z,61.51
2022-07-26T12:25:25.636Z,61.64
2022-07-26T12:28:46.851Z,61.97
2022-07-26T12:32:11.855Z,62.02
2022-07-26T12:35:29.518Z,62.07
2022-07-26T12:38:44.964Z,62.23
2022-07-26T12:41:54.232Z,62.44
2022-07-26T12:45:01.537Z,62.36
2022-07-26T12:48:12.009Z,62.45
2022-07-26T12:51:18.241Z,62.61
2022-07-26T12:54:29.370Z,62.82
2022-07-26T12:57:37.013Z,62.93
2022-07-26T13:00:43.255Z,63.15
2022-07-26T13:03:49.550Z,63.04
2022-07-26T13:06:55.657Z,63.20
2022-07-26T13:10:31.713Z,63.42
2022-07-26T13:13:28.212Z,63.46
2022-07-26T13:16:34.425Z,63.54
2022-07-26T13:19:40.643Z,63.56
2022-07-26T13:22:46.873Z,63.66
2022-07-26T13:25:54.003Z,63.72
2022-07-26T13:29:00.713Z,63.96
2022-07-26T13:32:07.822Z,63.95
2022-07-26T13:35:14.160Z,64.12
2022-07-26T13:38:20.488Z,64.34
2022-07-26T13:41:26.662Z,64.29
2022-07-26T13:44:34.927Z,64.52
2022-07-26T13:47:41.072Z,64.55
2022-07-26T13:50:47.287Z,64.69
2022-07-26T13:53:55.395Z,64.69
2022-07-26T13:57:03.333Z,64.95
2022-07-26T14:00:11.575Z,65.02
2022-07-26T14:03:18.339Z,65.17
2022-07-26T14:06:26.519Z,65.28
2022-07-26T14:09:32.742Z,65.18
2022-07-26T14:12:40.979Z,65.41
2022-07-26T14:15:47.080Z,65.56
2022-07-26T14:18:55.191Z,65.80
2022-07-26T14:22:01.356Z,65.87
2022-07-26T14:25:08.683Z,65.94
2022-07-26T14:28:14.856Z,66.12
2022-07-26T14:31:21.489Z,66.04
2022-07-26T14:34:27.769Z,66.25
2022-07-26T14:37:43.940Z,66.42
2022-07-26T14:40:51.796Z,66.50
2022-07-26T14:43:57.944Z,66.54
2022-07-26T14:47:04.322Z,66.63
2022-07-26T14:50:17.199Z,66.53
2022-07-26T14:53:25.003Z,66.54
2022-07-26T14:56:31.204Z,66.43
2022-07-26T14:59:37.367Z,66.76
2022-07-26T15:02:45.495Z,66.92
2022-07-26T15:05:51.848Z,67.10
2022-07-26T15:08:57.999Z,67.26
2022-07-26T15:12:04.177Z,67.18
2022-07-26T15:15:12.160Z,67.25
2022-07-26T15:18:18.369Z,67.19
2022-07-26T15:21:24.594Z,67.30
2022-07-26T15:24:30.879Z,67.35
2022-07-26T15:27:37.051Z,67.31
2022-07-26T15:30:43.232Z,67.52
2022-07-26T15:33:49.476Z,67.52
2022-07-26T15:36:55.659Z,67.45
2022-07-26T15:40:01.972Z,67.76
2022-07-26T15:43:08.120Z,67.97
2022-07-26T15:46:14.330Z,67.95
2022-07-26T15:49:22.260Z,68.04
2022-07-26T15:52:28.503Z,68.07
2022-07-26T15:55:34.845Z,68.01
2022-07-26T15:58:40.998Z,68.06
2022-07-26T16:01:47.454Z,68.03
2022-07-26T16:04:53.552Z,68.13
2022-07-26T16:07:59.780Z,68.13
2022-07-26T16:11:06.170Z,68.17
2022-07-26T16:14:12.357Z,68.34
2022-07-26T16:17:18.568Z,68.32
2022-07-26T16:20:24.745Z,68.29
2022-07-26T16:23:30.901Z,68.37
2022-07-26T16:26:37.370Z,68.53
2022-07-26T16:29:43.699Z,68.54
2022-07-26T16:32:50.290Z,68.52
2022-07-26T16:35:56.860Z,68.65
2022-07-26T16:39:03.198Z,68.60
2022-07-26T16:42:09.510Z,68.84
2022-07-26T16:45:15.834Z,68.84
2022-07-26T16:48:22.019Z,68.85
2022-07-26T16:51:28.404Z,69.00
2022-07-26T16:54:34.648Z,68.93
2022-07-26T16:57:41.422Z,69.12
2022-07-26T17:00:48.035Z,69.27
2022-07-26T17:03:54.308Z,69.14
2022-07-26T17:07:23.894Z,69.24
2022-07-26T17:10:27.122Z,69.33
2022-07-26T17:13:33.383Z,69.34
2022-07-26T17:16:39.866Z,69.49
2022-07-26T17:19:46.071Z,69.58
2022-07-26T17:22:52.224Z,69.53
2022-07-26T17:25:58.908Z,69.74
2022-07-26T17:29:06.353Z,69.71
2022-07-26T17:32:12.854Z,69.75
2022-07-26T17:35:19.055Z,69.81
2022-07-26T17:38:25.289Z,69.83
2022-07-26T17:41:33.524Z,69.86
2022-07-26T17:44:40.340Z,69.96
2022-07-26T17:47:46.965Z,69.97
2022-07-26T17:50:53.083Z,69.99
2022-07-26T17:53:59.240Z,70.16
2022-07-26T17:57:06.632Z,70.12
2022-07-26T18:00:15.023Z,70.21
2022-07-26T18:03:21.490Z,70.21
2022-07-26T18:06:27.682Z,70.24
2022-07-26T18:09:35.328Z,70.27
2022-07-26T18:12:41.977Z,70.31
2022-07-26T18:15:48.447Z,70.24
2022-07-26T18:18:54.728Z,70.31
2022-07-26T18:22:05.760Z,70.35
2022-07-26T18:25:12.988Z,70.29
2022-07-26T18:28:19.289Z,70.35
2022-07-26T18:31:25.616Z,70.47
2022-07-26T18:34:31.933Z,70.54
2022-07-26T18:37:38.127Z,70.51
2022-07-26T18:40:44.291Z,70.44
2022-07-26T18:43:50.437Z,70.66
2022-07-26T18:46:56.646Z,70.76
2022-07-26T18:50:02.879Z,70.78
2022-07-26T18:53:08.989Z,70.80
2022-07-26T18:56:15.167Z,70.90
2022-07-26T18:59:21.350Z,70.95
2022-07-26T19:02:27.609Z,70.84
2022-07-26T19:05:35.218Z,70.96
2022-07-26T19:08:42.055Z,70.96
2022-07-26T19:11:48.236Z,70.97
2022-07-26T19:14:54.553Z,70.91
2022-07-26T19:18:09.600Z,70.91
2022-07-26T19:21:15.852Z,70.99
2022-07-26T19:24:24.056Z,70.96
2022-07-26T19:27:30.350Z,70.97
2022-07-26T19:30:36.902Z,71.03
2022-07-26T19:33:43.275Z,70.89
2022-07-26T19:36:51.179Z,70.93
2022-07-26T19:40:00.633Z,70.93
2022-07-26T19:43:06.972Z,70.95
2022-07-26T19:46:13.272Z,70.91
2022-07-26T19:49:19.624Z,70.96
2022-07-26T19:52:26.046Z,70.95
2022-07-26T19:55:32.271Z,70.95
2022-07-26T19:58:38.521Z,71.06
2022-07-26T20:01:45.176Z,71.01
2022-07-26T20:04:51.532Z,71.02
2022-07-26T20:07:57.781Z,71.08
2022-07-26T20:11:03.966Z,71.14
2022-07-26T20:14:10.512Z,71.17
2022-07-26T20:17:16.935Z,71.36
2022-07-26T20:20:24.843Z,71.33
2022-07-26T20:23:31.606Z,71.34
2022-07-26T20:26:38.612Z,71.47
2022-07-26T20:29:44.744Z,71.37
2022-07-26T20:32:50.866Z,71.42
2022-07-26T20:35:57.068Z,71.57
2022-07-26T20:39:03.559Z,71.69
2022-07-26T20:42:13.536Z,71.52
2022-07-26T20:45:27.684Z,71.69
2022-07-26T20:48:33.911Z,71.67
2022-07-26T20:51:40.534Z,71.59
2022-07-26T20:54:46.743Z,71.75
2022-07-26T20:57:53.064Z,71.78
2022-07-26T21:00:59.514Z,71.63
2022-07-26T21:04:05.976Z,71.68
2022-07-26T21:07:12.194Z,71.85
2022-07-26T21:10:18.388Z,71.86
2022-07-26T21:13:25.111Z,71.83
2022-07-26T21:16:31.366Z,71.84
2022-07-26T21:19:37.775Z,71.82
2022-07-26T21:22:43.609Z,71.85
2022-07-26T21:25:50.081Z,71.68
2022-07-26T21:29:06.269Z,71.65
2022-07-26T21:32:12.536Z,71.65
2022-07-26T21:35:18.852Z,71.60
2022-07-26T21:38:25.021Z,71.68
2022-07-26T21:41:31.128Z,71.79
2022-07-26T21:44:37.191Z,71.71
2022-07-26T21:47:41.728Z,71.67
2022-07-26T21:50:47.920Z,71.68
2022-07-26T21:53:54.070Z,71.69
2022-07-26T21:57:01.077Z,71.57
2022-07-26T22:00:07.852Z,71.66
2022-07-26T22:03:14.027Z,71.61
2022-07-26T22:06:20.214Z,71.56
2022-07-26T22:09:26.334Z,71.65
2022-07-26T22:12:32.517Z,71.67
2022-07-26T22:15:39.065Z,71.60
2022-07-26T22:18:45.202Z,71.58
2022-07-26T22:21:51.190Z,71.45
2022-07-26T22:24:55.724Z,71.63
2022-07-26T22:28:02.827Z,71.61
2022-07-26T22:31:09.161Z,71.64
2022-07-26T22:34:15.409Z,71.51
2022-07-26T22:37:21.605Z,71.54
2022-07-26T22:40:27.789Z,71.78
2022-07-26T22:43:34.050Z,71.70
2022-07-26T22:46:40.301Z,71.74
2022-07-26T22:49:46.533Z,71.75
2022-07-26T22:52:52.743Z,71.82
2022-07-26T22:55:58.963Z,71.80
2022-07-26T22:59:05.317Z,71.76
2022-07-26T23:02:11.525Z,71.85
2022-07-26T23:05:18.113Z,71.85
2022-07-26T23:11:52.493Z,71.91
2022-07-26T23:14:58.659Z,71.74
2022-07-26T23:18:04.809Z,71.67
2022-07-26T23:21:11.038Z,71.73
2022-07-26T23:24:17.207Z,71.75
2022-07-26T23:27:23.331Z,71.74
2022-07-26T23:30:29.560Z,71.53
2022-07-26T23:33:51.442Z,71.64
2022-07-26T23:37:00.280Z,71.83
2022-07-26T23:40:07.626Z,71.71
2022-07-26T23:43:13.836Z,71.59
2022-07-26T23:46:20.091Z,71.67
2022-07-26T23:49:26.532Z,71.73
2022-07-26T23:52:32.746Z,71.71
2022-07-26T23:55:38.894Z,71.69
2022-07-26T23:58:45.684Z,71.77
